Time;durP1;ratioP1;P1;durP2;ratioP2;P2;SDS_P1;SDS_P2;PMS_P1;PMS_P2;Temp;Humidity;BMP_temperature;BMP_pressure;BME280_temperature;BME280_humidity;BME280_pressure;Samples;Min_cycle;Max_cycle;Signal;HPM_P1;HPM_P2
2022/11/20 00:00:53;;;;;;;8.43;4.90;;;;;;;19.43;45.35;100362.72;1784448;80;21108;-79
2022/11/20 00:03:19;;;;;;;7.05;5.55;;;;;;;19.43;45.33;100359.97;1784435;80;21077;-81
2022/11/20 00:05:46;;;;;;;5.05;4.40;;;;;;;19.41;45.34;100358.86;1784238;79;20946;-80
2022/11/20 00:08:12;;;;;;;6.00;4.17;;;;;;;19.42;45.33;100356.36;1784379;80;21014;-80
2022/11/20 00:10:40;;;;;;;6.85;5.33;;;;;;;19.42;45.33;100351.41;1763355;81;21009;-80
2022/11/20 00:13:07;;;;;;;5.55;4.58;;;;;;;19.42;45.31;100352.78;1762755;81;21295;-81
2022/11/20 00:15:33;;;;;;;5.25;4.42;;;;;;;19.41;45.32;100358.86;1763268;81;21026;-80
2022/11/20 00:18:00;;;;;;;9.13;5.00;;;;;;;19.41;45.33;100360.24;1763463;80;21049;-81
2022/11/20 00:20:32;;;;;;;6.20;4.80;;;;;;;19.41;45.31;100356.67;1760964;80;20996;-80
2022/11/20 00:22:58;;;;;;;6.12;4.67;;;;;;;19.41;45.31;100349.20;1751928;80;21000;-80
2022/11/20 00:25:25;;;;;;;5.92;4.85;;;;;;;19.40;45.30;100342.62;1751835;81;21128;-80
2022/11/20 00:27:51;;;;;;;6.83;4.95;;;;;;;19.40;45.30;100338.48;1751527;80;21519;-80
2022/11/20 00:30:18;;;;;;;6.25;4.97;;;;;;;19.40;45.32;100340.67;1751758;81;21070;-80
2022/11/20 00:32:44;;;;;;;6.42;4.75;;;;;;;19.40;45.30;100341.23;1751263;81;21119;-80
2022/11/20 00:35:16;;;;;;;7.25;4.83;;;;;;;19.39;45.29;100335.50;1751318;81;21025;-81
2022/11/20 00:37:42;;;;;;;6.17;4.58;;;;;;;19.39;45.29;100328.02;1751484;80;21058;-81
2022/11/20 00:40:10;;;;;;;6.45;4.78;;;;;;;19.39;45.29;100324.47;1781005;78;21032;-81
2022/11/20 00:42:36;;;;;;;7.65;4.75;;;;;;;19.39;45.25;100328.60;1751079;81;20996;-80
2022/11/20 00:45:03;;;;;;;5.53;4.70;;;;;;;19.38;45.27;100330.55;1751197;81;21601;-80
2022/11/20 00:47:30;;;;;;;5.50;4.20;;;;;;;19.37;45.26;100324.77;1751421;80;21040;-80
2022/11/20 00:49:56;;;;;;;6.33;4.67;;;;;;;19.37;45.26;100322.02;1751419;80;21089;-80
2022/11/20 00:52:22;;;;;;;5.65;4.70;;;;;;;19.37;45.26;100319.26;1751615;80;21407;-80
2022/11/20 00:54:48;;;;;;;6.03;4.53;;;;;;;19.38;45.25;100320.89;1751817;80;21001;-80
2022/11/20 00:57:15;;;;;;;5.37;4.12;;;;;;;19.36;45.23;100309.34;1751296;81;21016;-80
2022/11/20 00:59:41;;;;;;;5.60;4.60;;;;;;;19.38;45.22;100304.91;1751622;80;21502;-80
2022/11/20 01:02:07;;;;;;;5.12;4.30;;;;;;;19.36;45.22;100290.04;1751817;80;20972;-81
2022/11/20 01:04:33;;;;;;;5.72;4.47;;;;;;;19.36;45.21;100299.70;1751499;81;21522;-80
2022/11/20 01:07:00;;;;;;;6.25;4.65;;;;;;;19.36;45.21;100293.36;1751674;80;21040;-80
2022/11/20 01:09:26;;;;;;;5.65;4.72;;;;;;;19.36;45.20;100286.47;1730418;81;21072;-80
2022/11/20 01:11:53;;;;;;;6.42;4.83;;;;;;;19.35;45.19;100279.34;1755192;80;35839;-80
2022/11/20 01:14:20;;;;;;;5.70;4.67;;;;;;;19.35;45.20;100275.21;1751640;80;21891;-80
2022/11/20 01:16:50;;;;;;;5.78;4.80;;;;;;;19.36;45.20;100278.19;1751492;80;21029;-81
2022/11/20 01:19:19;;;;;;;6.03;4.85;;;;;;;19.35;45.21;100280.73;1781051;79;21514;-80
2022/11/20 01:21:50;;;;;;;6.03;4.75;;;;;;;19.34;45.21;100277.16;1756284;79;21626;-80
2022/11/20 01:24:23;;;;;;;5.42;4.30;;;;;;;19.34;45.18;100270.82;1781004;80;21081;-80
2022/11/20 01:26:50;;;;;;;5.15;4.03;;;;;;;19.33;45.17;100272.77;1762067;80;21073;-80
2022/11/20 01:29:21;;;;;;;5.53;4.42;;;;;;;19.33;45.18;100281.04;1783503;80;21069;-81
2022/11/20 01:31:47;;;;;;;5.55;4.25;;;;;;;19.33;45.17;100290.69;1783364;78;21568;-81
2022/11/20 01:34:17;;;;;;;4.83;4.15;;;;;;;19.34;45.16;100284.61;1783284;80;21041;-81
2022/11/20 01:36:43;;;;;;;5.70;4.92;;;;;;;19.33;45.16;100270.00;1783449;80;21038;-81
2022/11/20 01:39:17;;;;;;;5.25;4.28;;;;;;;19.32;45.14;100275.83;1783376;80;21460;-81
2022/11/20 01:44:57;;;;;;;4.95;4.17;;;;;;;19.33;45.15;100281.60;1783422;80;21022;-79
2022/11/20 01:47:42;;;;;;;6.80;5.08;;;;;;;19.32;45.14;100285.48;1783046;80;20967;-81
2022/11/20 01:50:23;;;;;;;5.55;4.28;;;;;;;19.31;45.12;100268.13;1783474;80;21647;-81
2022/11/20 01:52:55;;;;;;;;;;;;;;;19.31;45.12;100265.95;1785613;80;20979;-81
2022/11/20 01:55:25;;;;;;;4.53;3.83;;;;;;;19.30;45.11;100261.56;1783349;79;20185;-80
2022/11/20 01:57:51;;;;;;;5.05;4.40;;;;;;;19.27;45.13;100251.16;1783354;79;21476;-81
2022/11/20 02:00:19;;;;;;;6.72;4.80;;;;;;;19.28;45.14;100250.03;1783346;79;21015;-81
2022/11/20 02:02:53;;;;;;;6.30;4.70;;;;;;;19.26;45.13;100253.69;1783423;80;21587;-81
2022/11/20 02:05:46;;;;;;;4.90;4.22;;;;;;;19.27;45.14;100252.53;1783064;79;21331;-81
2022/11/20 02:08:12;;;;;;;6.37;4.70;;;;;;;19.28;45.16;100258.30;1766394;80;21319;-81
2022/11/20 02:10:38;;;;;;;5.15;3.80;;;;;;;19.27;45.12;100251.16;1783288;79;21034;-81
2022/11/20 02:15:56;;;;;;;4.97;4.37;;;;;;;19.26;45.13;100237.96;1766451;80;21556;-81
2022/11/20 02:18:22;;;;;;;5.40;4.50;;;;;;;19.27;45.11;100243.70;1783418;79;21970;-81
2022/11/20 02:20:52;;;;;;;6.35;4.65;;;;;;;19.26;45.10;100234.39;1782981;80;21034;-81
2022/11/20 02:23:30;;;;;;;5.73;4.80;;;;;;;19.26;45.11;100233.83;1777683;79;21477;-81
2022/11/20 02:25:56;;;;;;;6.10;4.65;;;;;;;19.25;45.12;100226.67;1777581;79;20975;-81
2022/11/20 02:28:23;;;;;;;6.62;4.67;;;;;;;19.25;45.11;100230.81;1777253;79;21234;-81
2022/11/20 02:30:49;;;;;;;6.05;4.35;;;;;;;19.25;45.11;100233.57;1777673;79;21118;-81
2022/11/20 02:33:16;;;;;;;5.67;4.50;;;;;;;19.25;45.10;100223.92;1777430;80;21028;-81
2022/11/20 02:35:46;;;;;;;5.47;4.62;;;;;;;19.25;45.08;100214.83;1777227;79;20999;-81
2022/11/20 02:38:12;;;;;;;7.20;4.90;;;;;;;19.25;45.07;100220.34;1777708;79;21440;-81
2022/11/20 02:40:39;;;;;;;5.75;4.65;;;;;;;19.25;45.07;100218.97;1777438;80;21537;-81
2022/11/20 02:43:05;;;;;;;6.53;4.80;;;;;;;19.25;45.07;100220.34;1777255;79;21060;-81
2022/11/20 02:45:31;;;;;;;5.87;4.58;;;;;;;19.25;45.07;100207.94;1777639;79;20925;-81
2022/11/20 02:47:58;;;;;;;6.00;4.50;;;;;;;19.25;45.05;100205.99;1777518;79;20993;-81
2022/11/20 02:50:24;;;;;;;6.72;4.70;;;;;;;19.25;45.05;100210.69;1777387;79;21000;-81
2022/11/20 02:52:51;;;;;;;6.08;4.70;;;;;;;19.24;45.04;100188.38;1777809;79;21019;-81
2022/11/20 02:55:19;;;;;;;5.85;4.40;;;;;;;19.24;45.04;100185.05;1777679;79;21108;-81
2022/11/20 02:57:46;;;;;;;6.37;4.87;;;;;;;19.24;45.02;100198.84;1776289;80;22133;-81
2022/11/20 03:00:13;;;;;;;6.10;4.37;;;;;;;19.24;45.00;100199.41;1777897;79;21027;-80
2022/11/20 03:02:40;;;;;;;5.62;4.35;;;;;;;19.24;45.01;100200.22;1777846;79;21004;-80
2022/11/20 03:05:06;;;;;;;6.55;4.22;;;;;;;19.24;44.99;100204.92;1777373;80;21125;-81
2022/11/20 03:07:33;;;;;;;5.42;4.30;;;;;;;19.24;44.98;100196.65;1777711;79;20957;-81
2022/11/20 03:09:59;;;;;;;5.15;4.35;;;;;;;19.24;44.96;100198.03;1777869;79;21565;-81
2022/11/20 03:12:25;;;;;;;6.20;5.30;;;;;;;19.23;44.96;100196.40;1777894;79;20924;-80
2022/11/20 03:14:51;;;;;;;5.62;4.47;;;;;;;19.24;44.97;100208.50;1778044;79;21012;-81
2022/11/20 03:17:18;;;;;;;5.90;4.70;;;;;;;19.24;44.95;100203.55;1777843;80;21547;-81
2022/11/20 03:19:44;;;;;;;5.65;4.47;;;;;;;19.23;44.94;100214.33;1777554;79;21080;-81
2022/11/20 03:22:10;;;;;;;5.85;4.47;;;;;;;19.23;44.94;100217.89;1759382;80;21050;-80
2022/11/20 03:24:36;;;;;;;5.80;4.55;;;;;;;19.22;44.97;100200.31;1783760;80;21019;-80
2022/11/20 03:27:02;;;;;;;4.60;3.98;;;;;;;19.23;44.92;100206.05;1783330;80;21545;-81
2022/11/20 03:29:29;;;;;;;5.33;4.22;;;;;;;19.22;44.93;100207.20;1783836;80;21069;-81
2022/11/20 03:31:55;;;;;;;6.22;4.90;;;;;;;19.23;44.93;100201.91;1783499;79;21057;-81
2022/11/20 03:34:21;;;;;;;5.12;4.03;;;;;;;19.21;44.92;100195.36;1763600;80;21514;-81
2022/11/20 03:36:48;;;;;;;6.45;4.75;;;;;;;19.22;44.91;100193.42;1783779;79;21101;-81
2022/11/20 03:39:14;;;;;;;5.25;4.12;;;;;;;19.21;44.93;100201.44;1783109;80;21026;-81
2022/11/20 03:41:41;;;;;;;5.20;4.08;;;;;;;19.21;44.90;100191.23;1782533;79;21053;-81
2022/11/20 03:44:10;;;;;;;7.37;4.33;;;;;;;19.21;44.89;100211.09;1783961;80;22030;-80
2022/11/20 03:46:36;;;;;;;5.45;4.12;;;;;;;19.22;44.88;100216.86;1783912;79;20891;-81
2022/11/20 03:49:03;;;;;;;7.90;4.05;;;;;;;19.21;44.88;100201.44;1783680;79;20884;-80
2022/11/20 03:51:34;;;;;;;5.70;4.33;;;;;;;19.21;44.87;100198.69;1784036;79;20868;-81
2022/11/20 03:54:04;;;;;;;5.15;4.28;;;;;;;19.20;44.89;100230.96;1784028;80;20871;-81
2022/11/20 03:56:32;;;;;;;5.17;4.08;;;;;;;19.20;44.89;100243.94;1783657;79;21307;-81
2022/11/20 03:59:04;;;;;;;6.08;4.33;;;;;;;19.19;44.87;100230.70;1783683;80;21288;-81
2022/11/20 04:01:33;;;;;;;5.25;4.25;;;;;;;19.19;44.87;100216.92;1783568;80;21532;-81
2022/11/20 04:04:05;;;;;;;5.70;4.37;;;;;;;19.18;44.87;100196.80;1783341;79;21100;-81
2022/11/20 04:06:37;;;;;;;6.97;4.25;;;;;;;19.18;44.87;100186.33;1783696;79;21117;-81
2022/11/20 04:09:03;;;;;;;6.33;4.87;;;;;;;19.18;44.86;100185.77;1783332;80;21830;-81
2022/11/20 04:11:31;;;;;;;5.62;3.90;;;;;;;19.17;44.84;100165.43;1783601;80;21062;-81
2022/11/20 04:14:06;;;;;;;5.97;4.33;;;;;;;19.18;44.84;100157.98;1762516;80;21106;-80
2022/11/20 04:16:36;;;;;;;4.78;3.75;;;;;;;19.18;44.82;100151.30;1783195;79;21098;-81
2022/11/20 04:19:05;;;;;;;5.70;4.40;;;;;;;19.18;44.82;100163.49;1783972;80;21477;-80
2022/11/20 04:21:32;;;;;;;5.35;4.20;;;;;;;19.16;44.82;100148.63;1783610;80;21146;-81
2022/11/20 04:23:58;;;;;;;5.92;4.22;;;;;;;19.17;44.80;100137.86;1775463;80;21089;-80
2022/11/20 04:26:26;;;;;;;5.87;3.95;;;;;;;19.16;44.78;100132.91;1758000;80;21544;-81
2022/11/20 04:28:52;;;;;;;5.50;4.28;;;;;;;19.16;44.78;100130.71;1756585;80;21014;-81
2022/11/20 04:31:24;;;;;;;4.90;4.03;;;;;;;19.15;44.79;100132.66;1758732;80;21108;-81
2022/11/20 04:33:50;;;;;;;5.25;4.33;;;;;;;19.15;44.78;100137.36;1765955;80;21133;-81
2022/11/20 04:36:20;;;;;;;5.78;4.30;;;;;;;19.14;44.78;100135.16;1765725;80;21463;-81
2022/11/20 04:38:48;;;;;;;6.22;3.92;;;;;;;19.14;44.77;100137.92;1765605;80;21020;-81
2022/11/20 04:41:19;;;;;;;5.95;4.28;;;;;;;19.14;44.76;100126.89;1737780;81;20966;-81
2022/11/20 04:43:58;;;;;;;5.62;4.05;;;;;;;19.14;44.78;100124.13;1758572;80;21491;-81
2022/11/20 04:46:22;;;;;;;5.08;4.45;;;;;;;19.14;44.75;100121.94;1755710;81;21262;-80
2022/11/20 04:48:48;;;;;;;5.53;4.30;;;;;;;19.14;44.72;100123.31;1727188;82;21520;-80
2022/11/20 04:51:15;;;;;;;5.03;3.85;;;;;;;19.13;44.73;100129.98;1746409;80;21034;-81
2022/11/20 04:53:41;;;;;;;5.95;3.95;;;;;;;19.13;44.71;100143.21;1725668;81;21137;-81
2022/11/20 04:56:08;;;;;;;5.67;4.12;;;;;;;19.14;44.73;100144.00;1746458;80;21050;-80
2022/11/20 04:58:35;;;;;;;5.30;3.83;;;;;;;19.13;44.72;100152.05;1746238;80;21172;-81
2022/11/20 05:01:09;;;;;;;5.87;4.25;;;;;;;19.12;44.71;100151.23;1749687;80;21480;-81
2022/11/20 05:03:35;;;;;;;5.58;3.92;;;;;;;19.11;44.71;100148.22;1786950;79;21073;-81
2022/11/20 05:06:03;;;;;;;6.20;4.62;;;;;;;19.12;44.71;100145.72;1767687;80;21007;-81
2022/11/20 05:08:31;;;;;;;5.00;3.98;;;;;;;19.11;44.69;100167.53;1768955;80;21085;-81
2022/11/20 05:11:04;;;;;;;6.50;4.50;;;;;;;19.12;44.71;100183.51;1786868;79;21229;-81
2022/11/20 05:13:31;;;;;;;4.47;3.55;;;;;;;19.11;44.70;100190.96;1785953;78;21382;-81
2022/11/20 05:16:07;;;;;;;6.17;3.85;;;;;;;19.12;44.69;100196.73;1786623;79;21023;-80
2022/11/20 05:18:34;;;;;;;4.67;3.50;;;;;;;19.12;44.69;100210.52;1785964;78;21058;-80
2022/11/20 05:21:00;;;;;;;4.80;3.98;;;;;;;19.11;44.68;100206.69;1786184;80;21105;-80
2022/11/20 05:23:29;;;;;;;5.25;3.80;;;;;;;19.10;44.68;100207.25;1766546;80;21085;-79
2022/11/20 05:25:56;;;;;;;6.33;3.70;;;;;;;19.11;44.67;100222.67;1783925;80;21015;-81
2022/11/20 05:28:23;;;;;;;5.45;3.52;;;;;;;19.11;44.68;100235.64;1783766;80;21062;-81
2022/11/20 05:30:49;;;;;;;5.37;3.98;;;;;;;19.10;44.70;100252.75;1784043;80;21073;-80
2022/11/20 05:33:15;;;;;;;4.62;3.83;;;;;;;19.11;44.69;100284.71;1784340;79;21465;-80
2022/11/20 05:35:42;;;;;;;4.72;3.67;;;;;;;19.11;44.68;100290.78;1783999;80;21834;-80
2022/11/20 05:38:08;;;;;;;4.47;3.67;;;;;;;19.11;44.67;100288.84;1766513;80;21026;-81
2022/11/20 05:40:34;;;;;;;5.10;4.08;;;;;;;19.11;44.66;100283.33;1784571;80;21441;-81
2022/11/20 05:43:00;;;;;;;6.03;4.45;;;;;;;19.11;44.67;100272.87;1784261;80;21097;-81
2022/11/20 05:45:27;;;;;;;5.00;3.72;;;;;;;19.10;44.67;100274.80;1784509;80;21078;-81
2022/11/20 05:47:53;;;;;;;4.70;3.70;;;;;;;19.10;44.67;100271.23;1784497;80;21469;-81
2022/11/20 05:50:19;;;;;;;4.47;3.25;;;;;;;19.10;44.67;100280.88;1784123;79;21018;-81
2022/11/20 05:52:45;;;;;;;5.28;4.10;;;;;;;19.10;44.67;100288.59;1766876;80;20987;-81
2022/11/20 05:55:11;;;;;;;4.47;3.92;;;;;;;19.10;44.67;100282.27;1765316;80;21486;-81
2022/11/20 05:57:38;;;;;;;4.92;4.12;;;;;;;19.09;44.65;100291.13;1766265;80;21085;-80
2022/11/20 06:00:06;;;;;;;4.12;3.47;;;;;;;19.10;44.66;100309.27;1784370;80;21102;-81
2022/11/20 06:02:35;;;;;;;4.37;3.40;;;;;;;19.09;44.66;100317.32;1784287;80;21544;-80
2022/11/20 06:05:02;;;;;;;5.03;3.30;;;;;;;19.09;44.66;100320.08;1783996;80;21065;-81
2022/11/20 06:07:31;;;;;;;5.90;3.67;;;;;;;19.09;44.66;100304.91;1741237;80;21446;-80
2022/11/20 06:09:57;;;;;;;5.90;3.52;;;;;;;19.09;44.67;100304.09;1766577;80;21594;-80
2022/11/20 06:12:23;;;;;;;5.35;3.75;;;;;;;19.09;44.66;100309.05;1761409;81;21092;-81
2022/11/20 06:14:49;;;;;;;4.70;3.83;;;;;;;19.08;44.66;100311.55;1762296;81;21589;-81
2022/11/20 06:17:16;;;;;;;5.22;3.58;;;;;;;19.08;44.65;100306.04;1763210;81;21415;-81
2022/11/20 06:19:42;;;;;;;4.90;3.72;;;;;;;19.08;44.65;100311.55;1762779;81;21049;-81
2022/11/20 06:22:08;;;;;;;5.40;3.77;;;;;;;19.08;44.63;100324.52;1770563;80;21445;-81
2022/11/20 06:24:34;;;;;;;5.35;3.58;;;;;;;19.07;44.65;100342.19;1751284;80;21178;-81
2022/11/20 06:27:00;;;;;;;5.80;3.50;;;;;;;19.07;44.62;100340.25;1751545;80;21031;-81
2022/11/20 06:29:26;;;;;;;4.67;3.87;;;;;;;19.07;44.65;100336.11;1751541;80;20996;-81
2022/11/20 06:31:53;;;;;;;3.85;3.40;;;;;;;19.06;44.63;100340.00;1729972;81;21563;-80
2022/11/20 06:34:19;;;;;;;5.22;3.83;;;;;;;19.07;44.62;100339.43;1781215;78;21043;-81
2022/11/20 06:36:45;;;;;;;4.75;3.08;;;;;;;19.06;44.62;100348.27;1751352;81;21561;-81
2022/11/20 06:39:12;;;;;;;5.62;3.47;;;;;;;19.07;44.62;100368.38;1750972;80;21057;-81
2022/11/20 06:41:38;;;;;;;4.92;3.58;;;;;;;19.06;44.61;100374.45;1751246;80;21063;-81
2022/11/20 06:44:05;;;;;;;4.62;3.40;;;;;;;19.06;44.62;100379.16;1751168;81;21020;-80
2022/11/20 06:46:31;;;;;;;4.00;3.37;;;;;;;19.07;44.63;100376.66;1751042;80;21040;-81
2022/11/20 06:48:58;;;;;;;4.80;3.27;;;;;;;19.05;44.62;100389.37;1751243;81;21040;-81
2022/11/20 06:51:24;;;;;;;4.85;3.58;;;;;;;19.06;44.62;100381.91;1751056;81;20992;-81
2022/11/20 06:53:50;;;;;;;4.35;3.17;;;;;;;19.05;44.61;100375.58;1751011;80;21032;-81
2022/11/20 06:56:17;;;;;;;4.22;3.60;;;;;;;19.05;44.60;100365.93;1751305;80;21060;-81
2022/11/20 06:58:43;;;;;;;3.90;2.92;;;;;;;19.04;44.62;100367.09;1751434;81;21531;-81
2022/11/20 07:01:11;;;;;;;4.42;3.47;;;;;;;19.04;44.60;100379.49;1751442;80;21862;-81
2022/11/20 07:03:38;;;;;;;3.83;3.15;;;;;;;19.04;44.62;100380.05;1751566;80;20981;-81
2022/11/20 07:06:04;;;;;;;4.55;3.37;;;;;;;19.04;44.61;100375.92;1751587;81;21095;-80
2022/11/20 07:08:31;;;;;;;4.40;3.25;;;;;;;19.05;44.62;100362.39;1751293;80;21024;-80
2022/11/20 07:11:02;;;;;;;5.40;3.35;;;;;;;19.04;44.60;100345.03;1751590;80;21538;-81
2022/11/20 07:13:28;;;;;;;4.70;3.50;;;;;;;19.04;44.60;100340.89;1751527;81;21104;-80
2022/11/20 07:15:55;;;;;;;5.00;3.33;;;;;;;19.03;44.59;100330.17;1751153;80;21079;-81
2022/11/20 07:18:21;;;;;;;4.40;3.10;;;;;;;19.03;44.60;100322.72;1729468;81;21437;-81
2022/11/20 07:20:48;;;;;;;4.28;3.42;;;;;;;19.02;44.59;100312.81;1751590;80;21093;-81
2022/11/20 07:23:14;;;;;;;5.17;3.33;;;;;;;19.01;44.59;100319.45;1779004;78;20893;-81
2022/11/20 07:25:40;;;;;;;3.95;2.85;;;;;;;19.01;44.59;100319.45;1754084;80;21490;-81
2022/11/20 07:28:06;;;;;;;4.10;2.75;;;;;;;19.02;44.61;100306.48;1754232;80;21079;-81
2022/11/20 07:30:33;;;;;;;4.42;3.02;;;;;;;19.01;44.62;100302.91;1754122;80;21013;-81
2022/11/20 07:32:59;;;;;;;5.15;3.35;;;;;;;19.01;44.62;100292.48;1754056;80;21542;-80
2022/11/20 07:35:25;;;;;;;3.52;2.92;;;;;;;19.02;44.61;100280.30;1754229;80;21088;-81
2022/11/20 07:37:52;;;;;;;3.92;3.37;;;;;;;19.02;44.62;100263.75;1754354;80;21226;-80
2022/11/20 07:40:18;;;;;;;5.08;3.10;;;;;;;19.01;44.61;100277.31;1754026;80;21019;-81
2022/11/20 07:42:51;;;;;;;4.28;3.02;;;;;;;19.01;44.61;100296.02;1722427;81;21091;-81
2022/11/20 07:45:19;;;;;;;4.83;2.92;;;;;;;19.00;44.59;100276.50;1754265;80;21052;-81
2022/11/20 07:47:45;;;;;;;4.60;2.98;;;;;;;19.01;44.58;100289.72;1753979;81;21042;-80
2022/11/20 07:50:12;;;;;;;3.62;3.08;;;;;;;19.00;44.58;100305.45;1754284;80;21108;-80
2022/11/20 07:52:38;;;;;;;4.72;3.00;;;;;;;19.00;44.59;100295.80;1754279;80;21056;-81
2022/11/20 07:55:06;;;;;;;3.45;2.85;;;;;;;19.01;44.58;100280.86;1754172;80;20972;-81
2022/11/20 07:57:32;;;;;;;4.60;3.08;;;;;;;19.00;44.59;100275.13;1754382;80;21546;-81
2022/11/20 07:59:58;;;;;;;5.17;3.25;;;;;;;19.00;44.59;100282.02;1754600;80;21027;-81
2022/11/20 08:02:25;;;;;;;4.33;2.95;;;;;;;19.00;44.59;100279.81;1754084;80;21029;-81
2022/11/20 08:04:51;;;;;;;3.85;2.70;;;;;;;19.00;44.59;100292.22;1754321;80;21027;-81
2022/11/20 08:07:17;;;;;;;4.10;2.52;;;;;;;18.99;44.58;100289.21;1772859;80;20963;-80
2022/11/20 08:09:43;;;;;;;3.92;2.95;;;;;;;18.99;44.57;100291.41;1754146;80;21048;-81
2022/11/20 08:15:05;;;;;;;4.55;2.85;;;;;;;18.99;44.57;100321.73;1748544;81;21032;-79
2022/11/20 08:17:31;;;;;;;3.72;2.77;;;;;;;18.98;44.57;100328.93;1754364;80;21467;-79
2022/11/20 08:19:57;;;;;;;4.83;2.83;;;;;;;18.99;44.56;100320.91;1754525;80;21575;-79
2022/11/20 08:22:24;;;;;;;3.50;2.60;;;;;;;18.98;44.54;100309.07;1754201;80;21039;-79
2022/11/20 08:24:51;;;;;;;3.58;2.70;;;;;;;18.99;44.56;100309.89;1751847;80;21578;-79
2022/11/20 08:27:17;;;;;;;4.08;2.77;;;;;;;18.99;44.54;100318.16;1751787;80;21553;-80
2022/11/20 08:29:43;;;;;;;3.80;2.70;;;;;;;18.98;44.54;100306.31;1751494;80;21016;-79
2022/11/20 08:32:09;;;;;;;3.70;2.50;;;;;;;18.98;44.53;100318.72;1751706;80;21362;-79
2022/11/20 08:34:36;;;;;;;3.55;2.40;;;;;;;18.99;44.53;100317.59;1751800;80;21032;-79
2022/11/20 08:37:02;;;;;;;4.15;2.70;;;;;;;18.98;44.53;100342.16;1751590;81;21506;-78
2022/11/20 08:39:29;;;;;;;3.67;2.67;;;;;;;18.99;44.52;100351.23;1751792;80;21494;-79
2022/11/20 08:41:55;;;;;;;3.67;2.72;;;;;;;18.99;44.52;100349.30;1752003;80;21032;-79
2022/11/20 08:44:21;;;;;;;2.92;2.60;;;;;;;19.00;44.53;100337.71;1751974;80;21593;-79
2022/11/20 08:46:47;;;;;;;3.87;2.90;;;;;;;18.99;44.52;100349.30;1752050;80;21040;-79
2022/11/20 08:49:14;;;;;;;3.15;2.40;;;;;;;18.99;44.53;100345.72;1752170;80;21079;-79
2022/11/20 08:51:41;;;;;;;3.92;2.83;;;;;;;18.98;44.53;100347.67;1751784;80;21171;-79
2022/11/20 08:54:07;;;;;;;2.80;2.20;;;;;;;18.98;44.53;100343.53;1752006;80;21151;-80
2022/11/20 08:56:33;;;;;;;4.92;2.90;;;;;;;18.98;44.53;100343.53;1751984;80;21056;-79
2022/11/20 08:59:00;;;;;;;3.27;2.42;;;;;;;18.98;44.53;100333.06;1751498;80;20986;-79
2022/11/20 09:01:26;;;;;;;3.10;2.50;;;;;;;18.98;44.51;100335.26;1752055;80;21067;-79
2022/11/20 09:03:52;;;;;;;3.55;2.45;;;;;;;18.98;44.52;100331.69;1751831;80;21128;-79
2022/11/20 09:06:18;;;;;;;3.42;2.72;;;;;;;18.98;44.52;100331.69;1751765;80;20985;-79
2022/11/20 09:08:44;;;;;;;3.40;2.37;;;;;;;18.97;44.52;100344.66;1751732;81;21024;-79
2022/11/20 09:11:11;;;;;;;2.80;2.30;;;;;;;18.98;44.51;100366.15;1751650;80;21063;-79
2022/11/20 09:13:37;;;;;;;3.75;2.70;;;;;;;18.97;44.51;100355.69;1751426;81;21028;-79
2022/11/20 09:16:08;;;;;;;3.85;2.87;;;;;;;18.98;44.51;100360.63;1751504;80;21755;-79
2022/11/20 09:18:38;;;;;;;3.25;2.77;;;;;;;18.96;44.53;100365.11;1751524;80;28208;-79
2022/11/20 09:21:10;;;;;;;3.93;2.47;;;;;;;18.96;44.54;100373.38;1751455;80;21504;-79
2022/11/20 09:23:37;;;;;;;3.90;2.25;;;;;;;18.96;44.54;100372.56;1749422;79;21799;-79
2022/11/20 09:26:06;;;;;;;2.65;2.15;;;;;;;18.95;44.56;100362.09;1746626;81;21649;-78
2022/11/20 09:28:32;;;;;;;3.15;2.27;;;;;;;18.96;44.54;100353.27;1767083;80;21186;-79
2022/11/20 09:30:59;;;;;;;4.12;2.42;;;;;;;18.96;44.54;100332.59;1746573;81;21506;-79
2022/11/20 09:33:25;;;;;;;3.60;2.40;;;;;;;18.96;44.55;100333.97;1746772;81;21048;-79
2022/11/20 09:35:52;;;;;;;3.35;2.17;;;;;;;18.95;44.55;100332.33;1746755;81;21088;-80
2022/11/20 09:38:18;;;;;;;3.77;2.47;;;;;;;18.96;44.54;100358.77;1746926;80;21029;-79
2022/11/20 09:40:49;;;;;;;3.17;2.15;;;;;;;18.95;44.56;100353.00;1746827;81;21175;-79
2022/11/20 09:43:52;;;;;;;3.22;2.50;;;;;;;18.95;44.54;100338.66;1738773;81;21109;-79
2022/11/20 09:46:39;;;;;;;2.80;2.33;;;;;;;18.95;44.53;100325.44;1740130;81;21044;-79
2022/11/20 09:49:34;;;;;;;3.12;2.27;;;;;;;18.95;44.52;100343.36;1746414;81;21075;-79
2022/11/20 09:52:27;;;;;;;3.35;2.40;;;;;;;18.94;44.52;100349.99;1746910;81;21041;-79
2022/11/20 09:54:54;;;;;;;2.75;2.00;;;;;;;18.94;44.52;100344.48;1746604;81;21177;-79
2022/11/20 09:57:36;;;;;;;2.98;2.22;;;;;;;18.93;44.50;100345.61;1746842;80;21064;-79
2022/11/20 10:00:05;;;;;;;3.17;2.50;;;;;;;18.92;44.53;100348.14;1746714;81;21001;-79
2022/11/20 10:02:51;;;;;;;3.10;2.40;;;;;;;18.92;44.55;100358.60;1746946;82;21016;-79
2022/11/20 10:05:23;;;;;;;3.00;2.22;;;;;;;18.91;44.56;100365.23;1716372;82;21025;-79
2022/11/20 10:08:13;;;;;;;3.12;2.12;;;;;;;18.90;44.59;100351.20;1746888;80;21432;-77
2022/11/20 10:11:01;;;;;;;3.22;2.20;;;;;;;18.91;44.58;100360.28;1746656;81;21048;-79
2022/11/20 10:14:09;;;;;;;3.65;2.37;;;;;;;18.90;44.57;100378.77;1746753;82;21747;-79
2022/11/20 10:16:51;;;;;;;3.15;2.25;;;;;;;18.89;44.58;100361.97;1746746;81;21064;-79
2022/11/20 10:19:35;;;;;;;3.45;2.10;;;;;;;18.89;44.60;100358.39;1746814;81;21081;-80
2022/11/20 10:22:23;;;;;;;3.17;2.10;;;;;;;18.89;44.59;100359.77;1744072;80;21126;-80
2022/11/20 10:25:22;;;;;;;2.98;2.05;;;;;;;18.89;44.59;100354.26;1746519;80;21116;-80
2022/11/20 10:28:18;;;;;;;2.72;2.00;;;;;;;18.88;44.57;100346.58;1746787;81;21013;-80
2022/11/20 10:30:46;;;;;;;4.00;2.15;;;;;;;18.88;44.57;100346.58;1746855;81;21056;-80
2022/11/20 10:33:17;;;;;;;3.95;2.30;;;;;;;18.88;44.58;100364.50;1746713;81;21690;-81
2022/11/20 10:35:51;;;;;;;3.33;2.05;;;;;;;18.87;44.60;100371.14;1746853;81;21281;-80
2022/11/20 10:38:24;;;;;;;3.35;2.25;;;;;;;18.87;44.63;100355.16;1746638;82;21047;-80
2022/11/20 10:43:46;;;;;;;3.10;2.27;;;;;;;18.86;44.65;100359.03;1746657;80;21032;-79
2022/11/20 10:46:22;;;;;;;2.85;2.05;;;;;;;18.86;44.64;100340.56;1746831;81;21107;-80
2022/11/20 10:48:48;;;;;;;3.47;2.52;;;;;;;18.87;44.64;100346.89;1746646;81;21467;-80
2022/11/20 10:51:46;;;;;;;2.92;2.20;;;;;;;18.87;44.64;100361.48;1746794;81;21362;-80
2022/11/20 10:54:36;;;;;;;3.47;2.37;;;;;;;18.86;44.65;100350.20;1746606;80;21024;-80
2022/11/20 10:57:23;;;;;;;4.05;2.70;;;;;;;18.85;44.65;100337.55;1746975;81;21096;-80
2022/11/20 11:00:05;;;;;;;2.55;2.00;;;;;;;18.86;44.64;100345.26;1746613;80;21040;-79
2022/11/20 11:02:44;;;;;;;2.70;2.22;;;;;;;18.85;44.65;100332.03;1746740;80;21698;-79
2022/11/20 11:05:22;;;;;;;3.70;2.17;;;;;;;18.85;44.65;100327.91;1746453;81;21449;-80
2022/11/20 11:07:51;;;;;;;2.92;2.08;;;;;;;18.85;44.67;100326.52;1746896;81;21009;-80
2022/11/20 11:10:24;;;;;;;3.30;2.22;;;;;;;18.85;44.68;100308.61;1746514;81;21020;-79
2022/11/20 11:12:51;;;;;;;4.25;2.37;;;;;;;18.85;44.68;100316.06;1746781;80;21628;-80
2022/11/20 11:15:40;;;;;;;2.42;1.95;;;;;;;18.85;44.69;100322.39;1746937;81;21093;-80
2022/11/20 11:18:11;;;;;;;2.50;2.05;;;;;;;18.84;44.72;100308.35;1746631;82;21039;-79
2022/11/20 11:20:37;;;;;;;2.52;2.15;;;;;;;18.84;44.70;100295.16;1746690;81;21565;-80
2022/11/20 11:23:04;;;;;;;3.77;2.17;;;;;;;18.84;44.73;100306.19;1746337;81;21075;-80
2022/11/20 11:25:36;;;;;;;3.10;2.37;;;;;;;18.85;44.74;100311.36;1732516;80;21037;-79
2022/11/20 11:28:21;;;;;;;3.45;2.20;;;;;;;18.85;44.73;100309.17;1763999;81;21218;-79
2022/11/20 11:30:50;;;;;;;2.98;2.15;;;;;;;18.85;44.74;100302.28;1765208;80;21072;-79
2022/11/20 11:33:29;;;;;;;3.00;2.40;;;;;;;18.83;44.75;100324.66;1765414;80;21104;-80
2022/11/20 11:36:02;;;;;;;2.65;1.98;;;;;;;18.84;44.75;100328.23;1765296;81;20970;-80
2022/11/20 11:38:38;;;;;;;3.17;2.20;;;;;;;18.84;44.75;100344.77;1769059;80;21584;-79
2022/11/20 11:41:07;;;;;;;2.90;2.20;;;;;;;18.84;44.74;100332.37;1794790;79;21120;-80
2022/11/20 11:46:30;;;;;;;3.72;2.22;;;;;;;18.83;44.76;100286.08;1786680;80;22175;-80
2022/11/20 11:48:59;;;;;;;3.42;2.12;;;;;;;18.84;44.76;100321.34;1786634;78;21042;-80